createdAt,value
2019-03-13T00:01:49.255Z,0.27
2019-03-13T00:06:58.445Z,0.14
2019-03-13T00:12:07.580Z,0.10
2019-03-13T00:17:16.979Z,0.18
2019-03-13T00:22:26.239Z,0.13
2019-03-13T00:27:35.475Z,0.16
2019-03-13T00:32:44.764Z,0.11
2019-03-13T00:37:54.087Z,0.10
2019-03-13T00:43:03.330Z,0.11
2019-03-13T00:48:12.561Z,0.15
2019-03-13T00:53:21.738Z,0.10
2019-03-13T00:58:31.139Z,0.10
2019-03-13T01:03:40.452Z,0.14
2019-03-13T01:08:49.660Z,0.10
2019-03-13T01:13:58.811Z,0.13
2019-03-13T01:19:08.075Z,0.11
2019-03-13T01:24:17.353Z,0.10
2019-03-13T01:29:26.588Z,0.16
2019-03-13T01:34:35.756Z,0.10
2019-03-13T01:39:45.163Z,0.13
2019-03-13T01:44:54.354Z,0.11
2019-03-13T01:50:03.826Z,0.11
2019-03-13T01:55:13.049Z,0.12
2019-03-13T02:00:22.266Z,0.15
2019-03-13T02:05:31.535Z,0.13
2019-03-13T02:10:40.827Z,0.10
2019-03-13T02:15:50.063Z,0.15
2019-03-13T02:20:59.327Z,0.10
2019-03-13T02:26:08.496Z,0.23
2019-03-13T02:31:17.796Z,0.09
2019-03-13T02:36:26.991Z,0.19
2019-03-13T02:41:36.226Z,0.17
2019-03-13T02:46:45.383Z,0.22
2019-03-13T02:51:54.605Z,0.17
2019-03-13T02:57:03.830Z,0.20
2019-03-13T03:02:13.196Z,0.14
2019-03-13T03:07:22.380Z,0.41
2019-03-13T03:12:32.975Z,0.21
2019-03-13T03:17:32.164Z,0.27
2019-03-13T03:22:41.442Z,0.21
2019-03-13T03:27:50.646Z,0.12
2019-03-13T03:32:59.935Z,0.16
2019-03-13T03:38:09.299Z,0.22
2019-03-13T03:43:18.515Z,0.19
2019-03-13T03:48:27.749Z,0.14
2019-03-13T03:53:37.013Z,0.23
2019-03-13T03:58:46.263Z,0.34
2019-03-13T04:03:55.427Z,0.22
2019-03-13T04:09:04.899Z,0.24
2019-03-13T04:14:14.136Z,0.24
2019-03-13T04:19:23.433Z,0.26
2019-03-13T04:24:32.709Z,0.17
2019-03-13T04:29:42.038Z,0.17
2019-03-13T04:34:51.368Z,0.20
2019-03-13T04:40:00.638Z,0.22
2019-03-13T04:45:09.821Z,0.25
2019-03-13T04:50:19.168Z,0.15
2019-03-13T04:55:28.470Z,0.28
2019-03-13T05:00:37.770Z,0.20
2019-03-13T05:05:46.996Z,0.15
2019-03-13T05:10:56.248Z,0.26
2019-03-13T05:16:05.416Z,0.21
2019-03-13T05:21:14.650Z,0.21
2019-03-13T05:26:23.990Z,0.10
2019-03-13T05:31:33.299Z,0.18
2019-03-13T05:36:43.799Z,0.11
2019-03-13T05:41:43.488Z,0.14
2019-03-13T05:46:52.626Z,0.22
2019-03-13T05:52:01.935Z,0.32
2019-03-13T05:57:14.046Z,0.19
2019-03-13T06:02:13.327Z,0.17
2019-03-13T06:07:23.712Z,0.14
2019-03-13T06:12:22.977Z,0.20
2019-03-13T06:17:32.348Z,0.23
2019-03-13T06:22:41.694Z,0.17
2019-03-13T06:27:50.943Z,0.30
2019-03-13T06:33:00.205Z,0.26
2019-03-13T06:38:09.464Z,0.18
2019-03-13T06:43:18.823Z,0.31
2019-03-13T06:48:28.083Z,0.19
2019-03-13T06:53:37.356Z,0.42
2019-03-13T06:58:46.775Z,0.32
2019-03-13T07:03:56.009Z,0.36
2019-03-13T07:09:05.267Z,0.20
2019-03-13T07:14:14.542Z,0.20
2019-03-13T07:19:23.979Z,0.51
2019-03-13T07:24:33.194Z,0.29
2019-03-13T07:29:42.486Z,0.18
2019-03-13T07:34:52.121Z,0.20
2019-03-13T07:40:01.438Z,0.50
2019-03-13T07:45:10.700Z,0.27
2019-03-13T07:50:20.027Z,1.98
2019-03-13T07:55:29.451Z,1.74
2019-03-13T08:00:38.819Z,1.17
2019-03-13T08:05:48.175Z,1.27
2019-03-13T08:10:57.418Z,1.21
2019-03-13T08:16:06.683Z,0.75
2019-03-13T08:21:16.027Z,1.02
2019-03-13T08:26:25.254Z,0.50
2019-03-13T08:31:34.506Z,0.54
2019-03-13T08:36:43.699Z,0.88
2019-03-13T08:41:52.999Z,0.48
2019-03-13T08:47:02.247Z,0.31
2019-03-13T08:52:11.507Z,0.38
2019-03-13T08:57:20.720Z,0.44
2019-03-13T09:02:29.988Z,0.22
2019-03-13T09:07:39.313Z,0.21
2019-03-13T09:12:48.657Z,0.32
2019-03-13T09:17:57.928Z,0.49
2019-03-13T09:23:07.069Z,0.63
2019-03-13T09:28:16.247Z,0.52
2019-03-13T09:33:25.604Z,0.48
2019-03-13T09:38:37.985Z,0.25
2019-03-13T09:43:43.612Z,0.62
2019-03-13T09:48:52.946Z,0.19
2019-03-13T09:54:02.152Z,0.24
2019-03-13T09:59:11.606Z,0.29
2019-03-13T10:04:20.826Z,0.29
2019-03-13T10:09:30.195Z,0.30
2019-03-13T10:14:39.467Z,0.16
2019-03-13T10:19:48.815Z,0.34
2019-03-13T10:24:59.344Z,0.22
2019-03-13T10:29:58.721Z,0.20
2019-03-13T10:35:07.946Z,0.15
2019-03-13T10:40:17.340Z,0.37
2019-03-13T10:45:26.722Z,0.26
2019-03-13T10:50:36.118Z,0.27
2019-03-13T10:55:45.351Z,0.11
2019-03-13T11:00:54.638Z,0.39
2019-03-13T11:06:03.999Z,0.33
2019-03-13T11:11:13.558Z,0.27
2019-03-13T11:16:36.957Z,0.32
2019-03-13T11:21:26.174Z,0.24
2019-03-13T11:26:35.390Z,0.12
2019-03-13T11:31:44.597Z,0.22
2019-03-13T11:36:54.007Z,0.36
2019-03-13T11:42:03.345Z,0.41
2019-03-13T11:47:12.643Z,0.25
2019-03-13T11:52:21.905Z,0.19
2019-03-13T11:57:31.288Z,0.24
2019-03-13T12:02:40.476Z,0.33
2019-03-13T12:07:49.755Z,0.18
2019-03-13T12:12:58.987Z,0.18
2019-03-13T12:18:08.492Z,0.22
2019-03-13T12:23:17.703Z,0.33
2019-03-13T12:28:27.096Z,0.17
2019-03-13T12:33:36.316Z,0.27
2019-03-13T12:38:45.767Z,0.11
2019-03-13T12:43:54.970Z,0.37
2019-03-13T12:49:04.447Z,0.12
2019-03-13T12:54:13.630Z,0.17
2019-03-13T12:59:22.885Z,0.32
2019-03-13T13:04:32.122Z,0.36
2019-03-13T13:09:41.283Z,0.38
2019-03-13T13:14:52.446Z,0.16
2019-03-13T13:19:59.403Z,0.23
2019-03-13T13:25:08.635Z,0.24
2019-03-13T13:30:17.934Z,0.19
2019-03-13T13:35:27.229Z,0.19
2019-03-13T13:40:36.569Z,0.15
2019-03-13T13:45:45.860Z,0.29
2019-03-13T13:50:55.151Z,0.19
2019-03-13T13:56:04.528Z,0.15
2019-03-13T14:01:12.356Z,0.13
2019-03-13T14:06:21.723Z,0.26
2019-03-13T14:11:30.751Z,0.12
2019-03-13T14:16:40.042Z,0.13
2019-03-13T14:21:49.293Z,0.15
2019-03-13T14:26:58.616Z,0.25
2019-03-13T14:32:07.798Z,0.18
2019-03-13T14:37:17.203Z,0.33
2019-03-13T14:42:26.411Z,0.18
2019-03-13T14:47:35.786Z,0.16
2019-03-13T14:52:46.081Z,0.31
2019-03-13T14:57:45.354Z,0.10
2019-03-13T15:02:54.523Z,0.23
2019-03-13T15:08:03.860Z,0.16
2019-03-13T15:13:13.075Z,0.17
2019-03-13T15:18:22.473Z,0.29
2019-03-13T15:23:31.745Z,0.15
2019-03-13T15:28:41.193Z,0.21
2019-03-13T15:33:50.425Z,0.14
2019-03-13T15:38:59.873Z,0.21
2019-03-13T15:44:09.138Z,0.14
2019-03-13T15:49:18.501Z,0.18
2019-03-13T15:54:27.922Z,0.11
2019-03-13T15:59:37.095Z,0.10
2019-03-13T16:04:46.365Z,0.11
2019-03-13T16:09:55.619Z,0.43
2019-03-13T16:15:04.949Z,0.23
2019-03-13T16:20:14.147Z,0.33
2019-03-13T16:25:23.389Z,0.38
2019-03-13T16:30:34.896Z,0.29
2019-03-13T16:35:34.289Z,0.17
2019-03-13T16:40:43.620Z,0.73
2019-03-13T16:45:52.912Z,0.37
2019-03-13T16:51:04.014Z,0.44
2019-03-13T16:56:02.437Z,0.54
2019-03-13T17:01:11.728Z,0.66
2019-03-13T17:06:20.979Z,0.42
2019-03-13T17:11:30.259Z,0.26
2019-03-13T17:16:39.436Z,0.43
2019-03-13T17:21:48.715Z,0.47
2019-03-13T17:26:58.114Z,0.48
2019-03-13T17:32:07.482Z,0.59
2019-03-13T17:37:16.820Z,0.96
2019-03-13T17:42:26.178Z,0.51
2019-03-13T17:47:35.517Z,0.48
2019-03-13T17:52:44.877Z,0.32
2019-03-13T17:57:52.683Z,0.56
2019-03-13T18:03:02.043Z,0.56
2019-03-13T18:08:11.400Z,0.22
2019-03-13T18:13:20.763Z,0.46
2019-03-13T18:18:30.109Z,0.23
2019-03-13T18:23:39.385Z,0.40
2019-03-13T18:28:48.680Z,0.22
2019-03-13T18:33:57.901Z,0.36
2019-03-13T18:39:07.211Z,0.28
2019-03-13T18:44:16.500Z,0.66
2019-03-13T18:49:25.717Z,0.55
2019-03-13T18:54:34.914Z,0.46
2019-03-13T18:59:44.183Z,0.38
2019-03-13T19:04:53.544Z,0.33
2019-03-13T19:10:02.820Z,0.29
2019-03-13T19:15:12.179Z,0.35
2019-03-13T19:20:21.423Z,0.54
2019-03-13T19:25:33.656Z,0.20
2019-03-13T19:30:37.944Z,0.33
2019-03-13T19:35:35.673Z,0.44
2019-03-13T19:40:45.280Z,0.19
2019-03-13T19:45:54.606Z,0.25
2019-03-13T19:51:03.865Z,0.26
2019-03-13T19:56:13.182Z,0.34
2019-03-13T20:01:22.708Z,0.33
2019-03-13T20:06:41.780Z,0.24
2019-03-13T20:11:41.048Z,0.25
2019-03-13T20:16:50.414Z,0.21
2019-03-13T20:21:59.817Z,0.39
2019-03-13T20:27:10.366Z,0.19
2019-03-13T20:32:09.666Z,0.27
2019-03-13T20:37:18.925Z,0.25
2019-03-13T20:42:28.263Z,0.34
2019-03-13T20:47:37.445Z,0.22
2019-03-13T20:52:46.644Z,0.25
2019-03-13T20:57:58.698Z,0.22
2019-03-13T21:03:03.196Z,0.42
2019-03-13T21:08:02.348Z,0.25
2019-03-13T21:13:11.562Z,0.72
2019-03-13T21:18:23.611Z,0.94
2019-03-13T21:23:22.948Z,0.42
2019-03-13T21:28:32.161Z,0.21
2019-03-13T21:33:41.456Z,0.34
2019-03-13T21:38:50.686Z,0.20
2019-03-13T21:44:00.191Z,0.31
2019-03-13T21:49:09.529Z,0.26
2019-03-13T21:54:18.962Z,0.25
2019-03-13T21:59:28.215Z,0.18
2019-03-13T22:04:37.577Z,0.21
2019-03-13T22:09:46.837Z,0.29
2019-03-13T22:14:56.168Z,0.22
2019-03-13T22:20:05.407Z,0.25
2019-03-13T22:25:14.764Z,0.42
2019-03-13T22:30:24.136Z,0.20
2019-03-13T22:35:36.290Z,0.26
2019-03-13T22:40:35.555Z,0.22
2019-03-13T22:45:43.396Z,0.24
2019-03-13T22:50:52.598Z,0.34
2019-03-13T22:56:02.135Z,0.25
2019-03-13T23:01:11.295Z,0.21
2019-03-13T23:06:20.687Z,0.18
2019-03-13T23:11:29.803Z,0.20
2019-03-13T23:16:39.075Z,0.31
2019-03-13T23:21:48.240Z,0.21
2019-03-13T23:26:57.794Z,0.28
2019-03-13T23:32:06.957Z,0.26
2019-03-13T23:37:16.313Z,0.35
2019-03-13T23:42:25.555Z,0.30
2019-03-13T23:47:34.826Z,0.26
2019-03-13T23:52:43.995Z,0.19
2019-03-13T23:57:53.280Z,0.19
